createdAt,value
2019-06-07T00:03:26.643Z,10.81
2019-06-07T00:08:28.665Z,10.71
2019-06-07T00:13:30.455Z,10.84
2019-06-07T00:18:36.831Z,10.97
2019-06-07T00:23:42.076Z,11.14
2019-06-07T00:28:47.580Z,11.08
2019-06-07T00:33:52.830Z,11.41
2019-06-07T00:38:58.372Z,11.63
2019-06-07T00:44:03.880Z,11.64
2019-06-07T00:49:09.311Z,11.57
2019-06-07T00:54:17.078Z,11.74
2019-06-07T00:59:28.426Z,11.66
2019-06-07T01:04:28.458Z,11.66
2019-06-07T01:09:33.698Z,11.45
2019-06-07T01:14:38.986Z,11.26
2019-06-07T01:19:44.476Z,11.14
2019-06-07T01:24:50.127Z,11.32
2019-06-07T01:29:55.334Z,11.28
2019-06-07T01:35:00.976Z,11.60
2019-06-07T01:40:06.752Z,11.69
2019-06-07T01:45:12.906Z,11.74
2019-06-07T01:50:22.516Z,11.70
2019-06-07T01:55:29.169Z,11.94
2019-06-07T02:00:32.992Z,11.86
2019-06-07T02:05:38.711Z,11.87
2019-06-07T02:10:46.729Z,11.94
2019-06-07T02:15:52.388Z,11.90
2019-06-07T02:20:58.047Z,11.87
2019-06-07T02:26:04.542Z,11.78
2019-06-07T02:31:09.848Z,11.88
2019-06-07T02:36:15.185Z,11.65
2019-06-07T02:41:22.929Z,11.53
2019-06-07T02:46:36.376Z,11.45
2019-06-07T02:51:41.112Z,11.39
2019-06-07T02:56:56.798Z,11.39
2019-06-07T03:01:48.759Z,11.29
2019-06-07T03:06:56.304Z,11.37
2019-06-07T03:12:03.200Z,11.34
2019-06-07T03:17:20.967Z,11.28
2019-06-07T03:22:26.748Z,11.23
2019-06-07T03:27:41.349Z,10.96
2019-06-07T03:32:47.206Z,10.93
2019-06-07T03:37:49.005Z,10.89
2019-06-07T03:42:54.612Z,10.73
2019-06-07T03:48:00.267Z,10.71
2019-06-07T03:53:05.719Z,10.68
2019-06-07T03:58:31.240Z,10.73
2019-06-07T04:03:33.640Z,10.73
2019-06-07T04:08:26.001Z,10.83
2019-06-07T04:13:36.746Z,10.92
2019-06-07T04:18:40.834Z,10.97
2019-06-07T04:23:45.924Z,11.00
2019-06-07T04:33:58.281Z,10.95
2019-06-07T04:39:03.890Z,10.98
2019-06-07T04:44:10.132Z,10.98
2019-06-07T04:49:17.468Z,11.01
2019-06-07T04:54:22.713Z,11.11
2019-06-07T05:00:04.277Z,11.12
2019-06-07T05:04:36.541Z,11.18
2019-06-07T05:09:43.339Z,11.25
2019-06-07T05:14:49.041Z,11.30
2019-06-07T05:19:54.284Z,11.46
2019-06-07T05:24:59.540Z,11.60
2019-06-07T05:30:13.702Z,11.81
2019-06-07T05:35:12.886Z,11.91
2019-06-07T05:40:22.821Z,11.93
2019-06-07T05:45:35.791Z,12.15
2019-06-07T05:50:49.981Z,12.11
2019-06-07T05:55:48.660Z,12.23
2019-06-07T06:00:54.027Z,12.38
2019-06-07T06:05:59.278Z,12.28
2019-06-07T06:11:04.515Z,12.22
2019-06-07T06:16:10.211Z,12.28
2019-06-07T06:21:19.733Z,12.27
2019-06-07T06:26:22.575Z,12.45
2019-06-07T06:31:28.066Z,12.67
2019-06-07T06:36:33.311Z,12.77
2019-06-07T06:41:50.681Z,12.87
2019-06-07T06:46:50.207Z,12.97
2019-06-07T06:51:53.869Z,13.24
2019-06-07T06:57:17.800Z,13.53
2019-06-07T07:02:07.793Z,13.76
2019-06-07T07:07:13.052Z,13.76
2019-06-07T07:12:18.667Z,13.96
2019-06-07T07:17:46.717Z,14.30
2019-06-07T07:22:30.887Z,14.55
2019-06-07T07:27:36.575Z,14.69
2019-06-07T07:32:45.602Z,14.34
2019-06-07T07:37:58.715Z,14.25
2019-06-07T07:42:56.751Z,14.56
2019-06-07T07:48:15.834Z,14.58
2019-06-07T07:53:10.242Z,14.78
2019-06-07T07:58:15.551Z,14.92
2019-06-07T08:03:21.362Z,15.16
2019-06-07T08:08:26.840Z,15.26
2019-06-07T08:13:32.160Z,15.53
2019-06-07T08:18:37.514Z,15.85
2019-06-07T08:23:42.830Z,16.25
2019-06-07T08:28:48.984Z,16.42
2019-06-07T08:33:57.033Z,16.52
2019-06-07T08:39:07.205Z,16.66
2019-06-07T08:44:22.770Z,16.71
2019-06-07T08:49:16.472Z,16.66
2019-06-07T08:54:23.361Z,16.91
2019-06-07T08:59:29.406Z,17.20
2019-06-07T09:04:34.650Z,17.34
2019-06-07T09:09:41.103Z,17.38
2019-06-07T09:14:59.744Z,17.69
2019-06-07T09:19:55.572Z,17.93
2019-06-07T09:25:09.446Z,18.13
2019-06-07T09:30:16.324Z,18.17
2019-06-07T09:35:17.539Z,18.52
2019-06-07T09:40:29.987Z,18.64
2019-06-07T09:45:35.279Z,18.58
2019-06-07T09:50:40.517Z,18.63
2019-06-07T09:55:46.082Z,18.40
2019-06-07T10:00:51.398Z,18.48
2019-06-07T10:05:57.960Z,18.52
2019-06-07T10:11:04.729Z,18.86
2019-06-07T10:16:10.523Z,18.83
2019-06-07T10:21:15.867Z,19.01
2019-06-07T10:26:21.416Z,19.18
2019-06-07T10:31:26.922Z,19.29
2019-06-07T10:36:32.556Z,19.49
2019-06-07T10:41:38.155Z,19.02
2019-06-07T10:46:43.450Z,19.24
2019-06-07T10:51:48.970Z,19.62
2019-06-07T10:56:54.220Z,19.78
2019-06-07T11:01:59.477Z,19.70
2019-06-07T11:07:06.292Z,20.05
2019-06-07T11:12:12.629Z,20.36
2019-06-07T11:17:17.984Z,20.39
2019-06-07T11:22:23.291Z,20.66
2019-06-07T11:27:28.995Z,20.98
2019-06-07T11:32:34.272Z,20.80
2019-06-07T11:37:39.513Z,20.67
2019-06-07T11:42:44.740Z,20.78
2019-06-07T11:47:50.364Z,21.09
2019-06-07T11:52:56.694Z,21.33
2019-06-07T11:58:01.977Z,21.54
2019-06-07T12:03:07.528Z,21.61
2019-06-07T12:08:14.023Z,21.95
2019-06-07T12:13:19.252Z,22.32
2019-06-07T12:18:24.568Z,22.69
2019-06-07T12:23:30.206Z,22.70
2019-06-07T12:28:35.485Z,22.77
2019-06-07T12:33:40.730Z,22.75
2019-06-07T12:38:45.996Z,22.59
2019-06-07T12:43:51.242Z,22.37
2019-06-07T12:48:56.487Z,22.05
2019-06-07T12:54:01.763Z,21.54
2019-06-07T12:59:07.869Z,22.01
2019-06-07T13:04:14.369Z,22.45
2019-06-07T13:09:19.921Z,22.89
2019-06-07T13:14:25.199Z,23.08
2019-06-07T13:19:30.797Z,23.49
2019-06-07T13:24:36.026Z,23.64
2019-06-07T13:29:41.291Z,23.91
2019-06-07T13:34:46.502Z,24.34
2019-06-07T13:39:51.776Z,24.55
2019-06-07T13:44:57.044Z,25.02
2019-06-07T13:50:02.275Z,24.97
2019-06-07T13:55:08.331Z,25.04
2019-06-07T14:00:14.898Z,25.44
2019-06-07T14:05:20.937Z,25.88
2019-06-07T14:10:27.518Z,26.38
2019-06-07T14:15:34.484Z,26.46
2019-06-07T14:20:40.137Z,26.18
2019-06-07T14:25:45.428Z,26.94
2019-06-07T14:30:50.926Z,27.28
2019-06-07T14:35:56.983Z,27.36
2019-06-07T14:41:02.236Z,27.35
2019-06-07T14:46:07.464Z,27.57
2019-06-07T14:51:12.716Z,28.01
2019-06-07T14:56:17.977Z,28.50
2019-06-07T15:01:23.599Z,28.68
2019-06-07T15:06:30.650Z,28.86
2019-06-07T15:11:35.925Z,28.97
2019-06-07T15:16:42.596Z,29.24
2019-06-07T15:21:47.805Z,29.28
2019-06-07T15:26:53.048Z,30.02
2019-06-07T15:31:58.195Z,30.02
2019-06-07T15:37:03.522Z,29.90
2019-06-07T15:42:08.851Z,29.96
2019-06-07T15:47:14.065Z,30.23
2019-06-07T15:52:19.284Z,30.04
2019-06-07T15:57:24.531Z,29.92
2019-06-07T16:02:31.311Z,30.09
2019-06-07T16:07:38.387Z,30.24
2019-06-07T16:12:58.845Z,30.57
2019-06-07T16:17:50.851Z,30.51
2019-06-07T16:22:56.227Z,30.71
2019-06-07T16:28:01.936Z,30.96
2019-06-07T16:33:07.233Z,30.98
2019-06-07T16:38:12.538Z,30.50
2019-06-07T16:43:18.719Z,30.79
2019-06-07T16:48:24.006Z,30.71
2019-06-07T16:53:29.545Z,30.57
2019-06-07T16:58:34.778Z,30.78
2019-06-07T17:03:41.342Z,30.78
2019-06-07T17:08:48.178Z,30.86
2019-06-07T17:13:53.814Z,30.89
2019-06-07T17:18:59.081Z,30.56
2019-06-07T17:24:04.652Z,30.59
2019-06-07T17:29:10.217Z,30.71
2019-06-07T17:34:15.596Z,30.27
2019-06-07T17:39:20.868Z,30.05
2019-06-07T17:44:26.438Z,29.89
2019-06-07T17:49:32.222Z,29.51
2019-06-07T17:54:38.538Z,29.25
2019-06-07T17:59:44.347Z,28.80
2019-06-07T18:04:51.156Z,28.54
2019-06-07T18:09:57.286Z,28.45
2019-06-07T18:15:02.631Z,28.17
2019-06-07T18:20:10.868Z,28.01
2019-06-07T18:25:16.529Z,28.01
2019-06-07T18:30:21.855Z,27.84
2019-06-07T18:35:27.228Z,26.62
2019-06-07T18:40:32.584Z,26.62
2019-06-07T18:45:37.824Z,25.60
2019-06-07T18:50:43.095Z,25.24
2019-06-07T18:55:49.882Z,24.79
2019-06-07T19:00:55.550Z,24.44
2019-06-07T19:06:02.131Z,24.10
2019-06-07T19:11:07.916Z,23.76
2019-06-07T19:16:14.099Z,23.19
2019-06-07T19:21:19.781Z,22.80
2019-06-07T19:26:25.347Z,22.85
2019-06-07T19:31:30.708Z,22.70
2019-06-07T19:36:48.914Z,22.42
2019-06-07T19:41:55.922Z,22.26
2019-06-07T19:47:07.096Z,22.10
2019-06-07T19:52:13.962Z,21.69
2019-06-07T19:57:19.963Z,21.45
2019-06-07T20:02:25.473Z,21.29
2019-06-07T20:07:30.750Z,21.03
2019-06-07T20:12:36.374Z,20.77
2019-06-07T20:17:42.015Z,20.65
2019-06-07T20:22:47.720Z,20.56
2019-06-07T20:27:53.267Z,20.53
2019-06-07T20:32:59.807Z,20.54
2019-06-07T20:38:05.888Z,20.46
2019-06-07T20:43:11.243Z,20.37
2019-06-07T20:48:16.507Z,20.29
2019-06-07T20:53:21.818Z,20.29
2019-06-07T20:58:27.901Z,20.25
2019-06-07T21:03:33.141Z,20.25
2019-06-07T21:08:38.833Z,20.20
2019-06-07T21:13:45.126Z,20.22
2019-06-07T21:18:51.209Z,20.23
2019-06-07T21:23:56.498Z,20.23
2019-06-07T21:29:03.256Z,20.29
2019-06-07T21:34:11.962Z,20.36
2019-06-07T21:39:15.606Z,20.42
2019-06-07T21:44:21.217Z,20.44
2019-06-07T21:49:26.832Z,19.81
2019-06-07T21:54:32.055Z,18.05
2019-06-07T21:59:37.351Z,17.27
2019-06-07T22:04:42.573Z,16.71
2019-06-07T22:09:47.868Z,16.40
2019-06-07T22:14:53.741Z,15.79
2019-06-07T22:19:59.155Z,15.26
2019-06-07T22:25:04.800Z,14.99
2019-06-07T22:30:10.698Z,14.64
2019-06-07T22:35:15.961Z,14.49
2019-06-07T22:40:21.220Z,14.48
2019-06-07T22:45:26.462Z,14.43
2019-06-07T22:50:32.093Z,14.41
2019-06-07T22:55:37.663Z,14.34
2019-06-07T23:00:43.499Z,14.26
2019-06-07T23:05:49.159Z,14.19
2019-06-07T23:10:54.769Z,14.21
2019-06-07T23:16:00.102Z,14.13
2019-06-07T23:21:05.351Z,14.06
2019-06-07T23:26:12.199Z,14.02
2019-06-07T23:31:18.559Z,13.97
2019-06-07T23:36:24.180Z,13.95
2019-06-07T23:41:29.517Z,13.83
2019-06-07T23:46:35.129Z,13.84
2019-06-07T23:51:42.270Z,13.71
2019-06-07T23:56:47.634Z,13.70
